sensor_id;sensor_type;location;lat;lon;timestamp;P1;durP1;ratioP1;P2;durP2;ratioP2
19151;SDS011;9708;53.114;9.388;2023-05-07T00:00:33;9.37;;;4.97;;
19151;SDS011;9708;53.114;9.388;2023-05-07T00:03:00;10.27;;;6.47;;
19151;SDS011;9708;53.114;9.388;2023-05-07T00:05:28;9.77;;;5.40;;
19151;SDS011;9708;53.114;9.388;2023-05-07T00:07:55;7.60;;;5.03;;
19151;SDS011;9708;53.114;9.388;2023-05-07T00:10:22;8.53;;;5.93;;
19151;SDS011;9708;53.114;9.388;2023-05-07T00:12:49;10.70;;;5.90;;
19151;SDS011;9708;53.114;9.388;2023-05-07T00:15:15;7.97;;;5.03;;
19151;SDS011;9708;53.114;9.388;2023-05-07T00:17:42;12.00;;;6.47;;
19151;SDS011;9708;53.114;9.388;2023-05-07T00:20:09;10.00;;;6.90;;
19151;SDS011;9708;53.114;9.388;2023-05-07T00:22:38;8.10;;;5.20;;
19151;SDS011;9708;53.114;9.388;2023-05-07T00:25:05;8.73;;;5.10;;
19151;SDS011;9708;53.114;9.388;2023-05-07T00:27:32;9.40;;;6.17;;
19151;SDS011;9708;53.114;9.388;2023-05-07T00:29:59;7.97;;;5.33;;
19151;SDS011;9708;53.114;9.388;2023-05-07T00:32:26;10.00;;;5.50;;
19151;SDS011;9708;53.114;9.388;2023-05-07T00:34:52;8.23;;;5.00;;
19151;SDS011;9708;53.114;9.388;2023-05-07T00:37:19;7.80;;;5.67;;
19151;SDS011;9708;53.114;9.388;2023-05-07T00:39:47;11.60;;;5.40;;
19151;SDS011;9708;53.114;9.388;2023-05-07T00:42:14;11.77;;;6.37;;
19151;SDS011;9708;53.114;9.388;2023-05-07T00:44:41;9.33;;;5.30;;
19151;SDS011;9708;53.114;9.388;2023-05-07T00:47:07;9.90;;;5.83;;
19151;SDS011;9708;53.114;9.388;2023-05-07T00:49:37;9.40;;;4.93;;
19151;SDS011;9708;53.114;9.388;2023-05-07T00:52:06;9.30;;;4.67;;
19151;SDS011;9708;53.114;9.388;2023-05-07T00:54:33;9.63;;;5.40;;
19151;SDS011;9708;53.114;9.388;2023-05-07T00:57:03;9.20;;;6.03;;
19151;SDS011;9708;53.114;9.388;2023-05-07T00:59:30;9.47;;;4.93;;
19151;SDS011;9708;53.114;9.388;2023-05-07T01:01:57;9.37;;;5.53;;
19151;SDS011;9708;53.114;9.388;2023-05-07T01:04:25;8.17;;;5.50;;
19151;SDS011;9708;53.114;9.388;2023-05-07T01:06:52;10.17;;;5.17;;
19151;SDS011;9708;53.114;9.388;2023-05-07T01:09:21;9.73;;;5.30;;
19151;SDS011;9708;53.114;9.388;2023-05-07T01:11:49;11.97;;;5.57;;
19151;SDS011;9708;53.114;9.388;2023-05-07T01:14:18;12.63;;;5.83;;
19151;SDS011;9708;53.114;9.388;2023-05-07T01:16:45;8.60;;;6.00;;
19151;SDS011;9708;53.114;9.388;2023-05-07T01:19:12;9.07;;;5.10;;
19151;SDS011;9708;53.114;9.388;2023-05-07T01:21:43;13.30;;;5.97;;
19151;SDS011;9708;53.114;9.388;2023-05-07T01:24:14;7.27;;;5.23;;
19151;SDS011;9708;53.114;9.388;2023-05-07T01:26:42;7.63;;;5.20;;
19151;SDS011;9708;53.114;9.388;2023-05-07T01:29:09;11.27;;;5.13;;
19151;SDS011;9708;53.114;9.388;2023-05-07T01:31:36;9.60;;;4.87;;
19151;SDS011;9708;53.114;9.388;2023-05-07T01:34:04;8.03;;;3.47;;
19151;SDS011;9708;53.114;9.388;2023-05-07T01:36:33;8.93;;;5.13;;
19151;SDS011;9708;53.114;9.388;2023-05-07T01:39:01;6.90;;;4.20;;
19151;SDS011;9708;53.114;9.388;2023-05-07T01:41:29;9.83;;;5.07;;
19151;SDS011;9708;53.114;9.388;2023-05-07T01:43:56;8.07;;;4.20;;
19151;SDS011;9708;53.114;9.388;2023-05-07T01:46:25;10.47;;;4.73;;
19151;SDS011;9708;53.114;9.388;2023-05-07T01:48:52;7.83;;;4.37;;
19151;SDS011;9708;53.114;9.388;2023-05-07T01:51:19;6.37;;;4.23;;
19151;SDS011;9708;53.114;9.388;2023-05-07T01:53:47;7.90;;;4.50;;
19151;SDS011;9708;53.114;9.388;2023-05-07T01:56:15;5.33;;;4.20;;
19151;SDS011;9708;53.114;9.388;2023-05-07T01:58:44;7.80;;;4.30;;
19151;SDS011;9708;53.114;9.388;2023-05-07T02:01:12;5.30;;;3.77;;
19151;SDS011;9708;53.114;9.388;2023-05-07T02:03:39;8.20;;;4.90;;
19151;SDS011;9708;53.114;9.388;2023-05-07T02:06:06;5.03;;;3.77;;
19151;SDS011;9708;53.114;9.388;2023-05-07T02:08:33;5.93;;;4.50;;
19151;SDS011;9708;53.114;9.388;2023-05-07T02:10:59;9.40;;;5.47;;
19151;SDS011;9708;53.114;9.388;2023-05-07T02:13:29;9.57;;;4.83;;
19151;SDS011;9708;53.114;9.388;2023-05-07T02:15:59;5.73;;;3.83;;
19151;SDS011;9708;53.114;9.388;2023-05-07T02:18:25;6.20;;;3.63;;
19151;SDS011;9708;53.114;9.388;2023-05-07T02:20:52;7.03;;;4.70;;
19151;SDS011;9708;53.114;9.388;2023-05-07T02:23:19;9.73;;;4.17;;
19151;SDS011;9708;53.114;9.388;2023-05-07T02:25:46;5.80;;;3.50;;
19151;SDS011;9708;53.114;9.388;2023-05-07T02:28:12;8.27;;;4.50;;
19151;SDS011;9708;53.114;9.388;2023-05-07T02:30:40;6.53;;;4.47;;
19151;SDS011;9708;53.114;9.388;2023-05-07T02:33:08;6.23;;;4.03;;
19151;SDS011;9708;53.114;9.388;2023-05-07T02:35:37;5.37;;;4.23;;
19151;SDS011;9708;53.114;9.388;2023-05-07T02:38:04;5.57;;;3.97;;
19151;SDS011;9708;53.114;9.388;2023-05-07T02:40:30;5.37;;;3.70;;
19151;SDS011;9708;53.114;9.388;2023-05-07T02:42:58;5.40;;;4.20;;
19151;SDS011;9708;53.114;9.388;2023-05-07T02:45:25;6.23;;;3.80;;
19151;SDS011;9708;53.114;9.388;2023-05-07T02:47:52;8.67;;;4.13;;
19151;SDS011;9708;53.114;9.388;2023-05-07T02:50:20;7.50;;;4.00;;
19151;SDS011;9708;53.114;9.388;2023-05-07T02:52:47;7.37;;;5.13;;
19151;SDS011;9708;53.114;9.388;2023-05-07T02:55:14;7.03;;;4.07;;
19151;SDS011;9708;53.114;9.388;2023-05-07T02:57:41;8.03;;;4.70;;
19151;SDS011;9708;53.114;9.388;2023-05-07T03:00:11;7.67;;;4.73;;
19151;SDS011;9708;53.114;9.388;2023-05-07T03:02:39;7.23;;;4.33;;
19151;SDS011;9708;53.114;9.388;2023-05-07T03:05:06;9.43;;;5.90;;
19151;SDS011;9708;53.114;9.388;2023-05-07T03:07:35;6.97;;;4.50;;
19151;SDS011;9708;53.114;9.388;2023-05-07T03:10:02;7.00;;;3.97;;
19151;SDS011;9708;53.114;9.388;2023-05-07T03:12:29;9.00;;;4.30;;
19151;SDS011;9708;53.114;9.388;2023-05-07T03:14:56;6.97;;;4.37;;
19151;SDS011;9708;53.114;9.388;2023-05-07T03:17:23;6.93;;;4.30;;
19151;SDS011;9708;53.114;9.388;2023-05-07T03:19:50;7.23;;;4.63;;
19151;SDS011;9708;53.114;9.388;2023-05-07T03:22:16;5.83;;;3.83;;
19151;SDS011;9708;53.114;9.388;2023-05-07T03:24:44;10.03;;;4.63;;
19151;SDS011;9708;53.114;9.388;2023-05-07T03:27:11;6.90;;;3.93;;
19151;SDS011;9708;53.114;9.388;2023-05-07T03:29:38;6.97;;;4.07;;
19151;SDS011;9708;53.114;9.388;2023-05-07T03:32:05;7.67;;;4.77;;
19151;SDS011;9708;53.114;9.388;2023-05-07T03:34:31;4.30;;;3.30;;
19151;SDS011;9708;53.114;9.388;2023-05-07T03:36:58;6.70;;;4.20;;
19151;SDS011;9708;53.114;9.388;2023-05-07T03:39:25;8.20;;;4.53;;
19151;SDS011;9708;53.114;9.388;2023-05-07T03:41:53;7.67;;;3.70;;
19151;SDS011;9708;53.114;9.388;2023-05-07T03:44:20;4.93;;;3.43;;
19151;SDS011;9708;53.114;9.388;2023-05-07T03:46:47;7.87;;;4.33;;
19151;SDS011;9708;53.114;9.388;2023-05-07T03:49:13;7.73;;;4.07;;
19151;SDS011;9708;53.114;9.388;2023-05-07T03:51:40;7.40;;;4.03;;
19151;SDS011;9708;53.114;9.388;2023-05-07T03:54:07;8.33;;;4.70;;
19151;SDS011;9708;53.114;9.388;2023-05-07T03:56:34;5.80;;;4.13;;
19151;SDS011;9708;53.114;9.388;2023-05-07T03:59:02;9.83;;;4.63;;
19151;SDS011;9708;53.114;9.388;2023-05-07T04:01:28;7.73;;;3.60;;
19151;SDS011;9708;53.114;9.388;2023-05-07T04:03:55;5.43;;;3.80;;
19151;SDS011;9708;53.114;9.388;2023-05-07T04:06:22;5.83;;;3.73;;
19151;SDS011;9708;53.114;9.388;2023-05-07T04:08:49;6.67;;;5.03;;
19151;SDS011;9708;53.114;9.388;2023-05-07T04:11:16;4.83;;;3.20;;
19151;SDS011;9708;53.114;9.388;2023-05-07T04:13:42;5.83;;;3.87;;
19151;SDS011;9708;53.114;9.388;2023-05-07T04:16:10;7.33;;;4.03;;
19151;SDS011;9708;53.114;9.388;2023-05-07T04:18:37;5.47;;;3.77;;
19151;SDS011;9708;53.114;9.388;2023-05-07T04:21:04;14.10;;;5.47;;
19151;SDS011;9708;53.114;9.388;2023-05-07T04:23:31;5.60;;;3.60;;
19151;SDS011;9708;53.114;9.388;2023-05-07T04:25:58;7.00;;;4.00;;
19151;SDS011;9708;53.114;9.388;2023-05-07T04:28:25;7.77;;;3.67;;
19151;SDS011;9708;53.114;9.388;2023-05-07T04:30:52;4.30;;;3.53;;
19151;SDS011;9708;53.114;9.388;2023-05-07T04:33:20;6.83;;;5.00;;
19151;SDS011;9708;53.114;9.388;2023-05-07T04:35:47;7.53;;;4.93;;
19151;SDS011;9708;53.114;9.388;2023-05-07T04:38:14;10.43;;;4.50;;
19151;SDS011;9708;53.114;9.388;2023-05-07T04:40:41;6.83;;;4.67;;
19151;SDS011;9708;53.114;9.388;2023-05-07T04:43:08;5.47;;;4.17;;
19151;SDS011;9708;53.114;9.388;2023-05-07T04:45:35;6.73;;;4.50;;
19151;SDS011;9708;53.114;9.388;2023-05-07T04:48:02;5.50;;;3.87;;
19151;SDS011;9708;53.114;9.388;2023-05-07T04:50:30;5.63;;;3.80;;
19151;SDS011;9708;53.114;9.388;2023-05-07T04:52:57;6.87;;;4.67;;
19151;SDS011;9708;53.114;9.388;2023-05-07T04:55:23;6.47;;;4.27;;
19151;SDS011;9708;53.114;9.388;2023-05-07T04:57:51;8.50;;;5.20;;
19151;SDS011;9708;53.114;9.388;2023-05-07T05:00:18;6.17;;;4.37;;
19151;SDS011;9708;53.114;9.388;2023-05-07T05:02:45;6.70;;;4.40;;
19151;SDS011;9708;53.114;9.388;2023-05-07T05:05:12;6.50;;;4.07;;
19151;SDS011;9708;53.114;9.388;2023-05-07T05:07:40;5.93;;;3.40;;
19151;SDS011;9708;53.114;9.388;2023-05-07T05:10:07;4.70;;;3.77;;
19151;SDS011;9708;53.114;9.388;2023-05-07T05:12:34;7.27;;;4.10;;
19151;SDS011;9708;53.114;9.388;2023-05-07T05:15:00;5.80;;;3.87;;
19151;SDS011;9708;53.114;9.388;2023-05-07T05:17:27;5.43;;;3.47;;
19151;SDS011;9708;53.114;9.388;2023-05-07T05:19:54;5.27;;;3.90;;
19151;SDS011;9708;53.114;9.388;2023-05-07T05:22:21;6.87;;;4.37;;
19151;SDS011;9708;53.114;9.388;2023-05-07T05:24:49;4.40;;;3.83;;
19151;SDS011;9708;53.114;9.388;2023-05-07T05:27:15;6.60;;;3.60;;
19151;SDS011;9708;53.114;9.388;2023-05-07T05:29:42;4.23;;;3.30;;
19151;SDS011;9708;53.114;9.388;2023-05-07T05:32:09;4.60;;;3.50;;
19151;SDS011;9708;53.114;9.388;2023-05-07T05:34:36;6.63;;;3.90;;
19151;SDS011;9708;53.114;9.388;2023-05-07T05:37:02;6.63;;;4.30;;
19151;SDS011;9708;53.114;9.388;2023-05-07T05:39:29;3.67;;;3.03;;
19151;SDS011;9708;53.114;9.388;2023-05-07T05:41:57;5.70;;;3.43;;
19151;SDS011;9708;53.114;9.388;2023-05-07T05:44:24;5.93;;;4.53;;
19151;SDS011;9708;53.114;9.388;2023-05-07T05:46:51;5.47;;;3.17;;
19151;SDS011;9708;53.114;9.388;2023-05-07T05:49:20;6.20;;;4.30;;
19151;SDS011;9708;53.114;9.388;2023-05-07T05:51:46;5.57;;;3.33;;
19151;SDS011;9708;53.114;9.388;2023-05-07T05:54:13;4.80;;;3.30;;
19151;SDS011;9708;53.114;9.388;2023-05-07T05:56:40;4.27;;;3.20;;
19151;SDS011;9708;53.114;9.388;2023-05-07T05:59:09;5.47;;;3.90;;
19151;SDS011;9708;53.114;9.388;2023-05-07T06:01:36;5.10;;;3.67;;
19151;SDS011;9708;53.114;9.388;2023-05-07T06:04:02;4.73;;;3.40;;
19151;SDS011;9708;53.114;9.388;2023-05-07T06:06:30;4.33;;;3.93;;
19151;SDS011;9708;53.114;9.388;2023-05-07T06:08:57;5.27;;;3.20;;
19151;SDS011;9708;53.114;9.388;2023-05-07T06:11:24;3.60;;;3.23;;
19151;SDS011;9708;53.114;9.388;2023-05-07T06:13:50;3.60;;;2.53;;
19151;SDS011;9708;53.114;9.388;2023-05-07T06:16:18;3.73;;;2.67;;
19151;SDS011;9708;53.114;9.388;2023-05-07T06:18:45;7.67;;;4.37;;
19151;SDS011;9708;53.114;9.388;2023-05-07T06:21:12;5.23;;;2.83;;
19151;SDS011;9708;53.114;9.388;2023-05-07T06:23:39;4.90;;;3.57;;
19151;SDS011;9708;53.114;9.388;2023-05-07T06:26:06;8.30;;;3.27;;
19151;SDS011;9708;53.114;9.388;2023-05-07T06:28:33;5.93;;;3.87;;
19151;SDS011;9708;53.114;9.388;2023-05-07T06:31:10;5.40;;;3.30;;
19151;SDS011;9708;53.114;9.388;2023-05-07T06:33:39;5.23;;;3.97;;
19151;SDS011;9708;53.114;9.388;2023-05-07T06:36:06;4.60;;;2.67;;
19151;SDS011;9708;53.114;9.388;2023-05-07T06:38:33;4.83;;;2.97;;
19151;SDS011;9708;53.114;9.388;2023-05-07T06:40:59;5.30;;;3.27;;
19151;SDS011;9708;53.114;9.388;2023-05-07T06:43:26;4.57;;;3.17;;
19151;SDS011;9708;53.114;9.388;2023-05-07T06:45:53;4.40;;;2.93;;
19151;SDS011;9708;53.114;9.388;2023-05-07T06:48:20;6.13;;;3.13;;
19151;SDS011;9708;53.114;9.388;2023-05-07T06:50:48;5.77;;;3.10;;
19151;SDS011;9708;53.114;9.388;2023-05-07T06:53:15;4.07;;;2.83;;
19151;SDS011;9708;53.114;9.388;2023-05-07T06:55:41;6.57;;;4.20;;
19151;SDS011;9708;53.114;9.388;2023-05-07T06:58:08;14.47;;;6.93;;
19151;SDS011;9708;53.114;9.388;2023-05-07T07:00:35;4.47;;;3.27;;
19151;SDS011;9708;53.114;9.388;2023-05-07T07:03:01;4.17;;;2.80;;
19151;SDS011;9708;53.114;9.388;2023-05-07T07:05:28;6.90;;;3.53;;
19151;SDS011;9708;53.114;9.388;2023-05-07T07:07:56;3.80;;;2.83;;
19151;SDS011;9708;53.114;9.388;2023-05-07T07:10:23;6.07;;;3.27;;
19151;SDS011;9708;53.114;9.388;2023-05-07T07:12:50;4.10;;;3.03;;
19151;SDS011;9708;53.114;9.388;2023-05-07T07:15:17;5.20;;;3.70;;
19151;SDS011;9708;53.114;9.388;2023-05-07T07:17:45;5.53;;;3.30;;
19151;SDS011;9708;53.114;9.388;2023-05-07T07:20:12;6.03;;;4.30;;
19151;SDS011;9708;53.114;9.388;2023-05-07T07:22:39;4.73;;;3.27;;
19151;SDS011;9708;53.114;9.388;2023-05-07T07:25:08;4.83;;;3.27;;
19151;SDS011;9708;53.114;9.388;2023-05-07T07:27:36;3.30;;;2.50;;
19151;SDS011;9708;53.114;9.388;2023-05-07T07:30:03;4.57;;;3.57;;
19151;SDS011;9708;53.114;9.388;2023-05-07T07:32:30;6.87;;;4.43;;
19151;SDS011;9708;53.114;9.388;2023-05-07T07:34:58;4.00;;;2.70;;
19151;SDS011;9708;53.114;9.388;2023-05-07T07:37:25;5.47;;;2.93;;
19151;SDS011;9708;53.114;9.388;2023-05-07T07:39:52;4.60;;;3.40;;
19151;SDS011;9708;53.114;9.388;2023-05-07T07:42:20;6.67;;;3.03;;
19151;SDS011;9708;53.114;9.388;2023-05-07T07:44:46;4.50;;;3.60;;
19151;SDS011;9708;53.114;9.388;2023-05-07T07:47:14;9.83;;;3.93;;
19151;SDS011;9708;53.114;9.388;2023-05-07T07:49:41;4.30;;;3.53;;
19151;SDS011;9708;53.114;9.388;2023-05-07T07:52:07;5.60;;;3.57;;
19151;SDS011;9708;53.114;9.388;2023-05-07T07:54:34;5.53;;;3.43;;
19151;SDS011;9708;53.114;9.388;2023-05-07T07:57:01;4.90;;;3.40;;
19151;SDS011;9708;53.114;9.388;2023-05-07T07:59:29;6.40;;;3.00;;
19151;SDS011;9708;53.114;9.388;2023-05-07T08:01:56;5.50;;;3.67;;
19151;SDS011;9708;53.114;9.388;2023-05-07T08:04:23;3.50;;;2.93;;
19151;SDS011;9708;53.114;9.388;2023-05-07T08:06:50;5.83;;;4.03;;
19151;SDS011;9708;53.114;9.388;2023-05-07T08:09:17;5.40;;;3.70;;
19151;SDS011;9708;53.114;9.388;2023-05-07T08:11:43;4.13;;;3.10;;
19151;SDS011;9708;53.114;9.388;2023-05-07T08:14:11;3.30;;;2.63;;
19151;SDS011;9708;53.114;9.388;2023-05-07T08:16:39;5.37;;;3.73;;
19151;SDS011;9708;53.114;9.388;2023-05-07T08:19:05;3.60;;;3.03;;
19151;SDS011;9708;53.114;9.388;2023-05-07T08:21:32;4.63;;;3.03;;
19151;SDS011;9708;53.114;9.388;2023-05-07T08:24:00;4.50;;;2.70;;
19151;SDS011;9708;53.114;9.388;2023-05-07T08:26:26;5.73;;;3.67;;
19151;SDS011;9708;53.114;9.388;2023-05-07T08:28:53;5.27;;;3.63;;
19151;SDS011;9708;53.114;9.388;2023-05-07T08:31:20;5.77;;;3.37;;
19151;SDS011;9708;53.114;9.388;2023-05-07T08:33:48;4.53;;;3.13;;
19151;SDS011;9708;53.114;9.388;2023-05-07T08:36:16;5.63;;;3.40;;
19151;SDS011;9708;53.114;9.388;2023-05-07T08:38:44;4.53;;;2.87;;
19151;SDS011;9708;53.114;9.388;2023-05-07T08:41:10;4.50;;;2.90;;
19151;SDS011;9708;53.114;9.388;2023-05-07T08:43:37;4.00;;;3.03;;
19151;SDS011;9708;53.114;9.388;2023-05-07T08:46:06;6.97;;;3.57;;
19151;SDS011;9708;53.114;9.388;2023-05-07T08:48:36;5.07;;;3.17;;
19151;SDS011;9708;53.114;9.388;2023-05-07T08:51:04;4.50;;;3.00;;
19151;SDS011;9708;53.114;9.388;2023-05-07T08:53:31;4.20;;;3.40;;
19151;SDS011;9708;53.114;9.388;2023-05-07T08:55:59;3.03;;;2.70;;
19151;SDS011;9708;53.114;9.388;2023-05-07T08:58:26;6.40;;;3.17;;
19151;SDS011;9708;53.114;9.388;2023-05-07T09:00:53;5.13;;;3.30;;
19151;SDS011;9708;53.114;9.388;2023-05-07T09:03:20;5.70;;;3.13;;
19151;SDS011;9708;53.114;9.388;2023-05-07T09:05:47;4.93;;;2.90;;
19151;SDS011;9708;53.114;9.388;2023-05-07T09:08:15;5.47;;;3.77;;
19151;SDS011;9708;53.114;9.388;2023-05-07T09:10:42;8.33;;;3.93;;
19151;SDS011;9708;53.114;9.388;2023-05-07T09:13:09;6.53;;;3.53;;
19151;SDS011;9708;53.114;9.388;2023-05-07T09:15:38;5.27;;;3.30;;
19151;SDS011;9708;53.114;9.388;2023-05-07T09:18:04;6.07;;;3.70;;
19151;SDS011;9708;53.114;9.388;2023-05-07T09:20:31;7.07;;;3.43;;
19151;SDS011;9708;53.114;9.388;2023-05-07T09:22:58;9.87;;;3.20;;
19151;SDS011;9708;53.114;9.388;2023-05-07T09:25:29;7.33;;;3.90;;
19151;SDS011;9708;53.114;9.388;2023-05-07T09:27:57;5.20;;;3.17;;
19151;SDS011;9708;53.114;9.388;2023-05-07T09:30:26;6.17;;;3.90;;
19151;SDS011;9708;53.114;9.388;2023-05-07T09:32:54;3.90;;;3.00;;
19151;SDS011;9708;53.114;9.388;2023-05-07T09:35:21;6.93;;;3.17;;
19151;SDS011;9708;53.114;9.388;2023-05-07T09:37:49;4.90;;;3.23;;
19151;SDS011;9708;53.114;9.388;2023-05-07T09:40:22;4.80;;;3.20;;
19151;SDS011;9708;53.114;9.388;2023-05-07T09:42:51;3.83;;;3.23;;
19151;SDS011;9708;53.114;9.388;2023-05-07T09:45:21;6.33;;;3.50;;
19151;SDS011;9708;53.114;9.388;2023-05-07T09:47:49;4.03;;;2.77;;
19151;SDS011;9708;53.114;9.388;2023-05-07T09:50:17;3.30;;;2.83;;
19151;SDS011;9708;53.114;9.388;2023-05-07T09:52:45;5.10;;;3.23;;
19151;SDS011;9708;53.114;9.388;2023-05-07T09:55:12;4.07;;;2.90;;
19151;SDS011;9708;53.114;9.388;2023-05-07T09:57:39;4.77;;;3.00;;
19151;SDS011;9708;53.114;9.388;2023-05-07T10:00:10;5.70;;;2.93;;
19151;SDS011;9708;53.114;9.388;2023-05-07T10:02:38;4.17;;;2.93;;
19151;SDS011;9708;53.114;9.388;2023-05-07T10:05:11;4.77;;;2.90;;
19151;SDS011;9708;53.114;9.388;2023-05-07T10:07:40;5.77;;;3.37;;
19151;SDS011;9708;53.114;9.388;2023-05-07T10:10:07;2.87;;;2.30;;
19151;SDS011;9708;53.114;9.388;2023-05-07T10:12:34;4.23;;;3.00;;
19151;SDS011;9708;53.114;9.388;2023-05-07T10:15:05;3.00;;;2.30;;
19151;SDS011;9708;53.114;9.388;2023-05-07T10:17:35;4.43;;;2.97;;
19151;SDS011;9708;53.114;9.388;2023-05-07T10:20:03;5.37;;;3.40;;
19151;SDS011;9708;53.114;9.388;2023-05-07T10:22:31;3.27;;;2.67;;
19151;SDS011;9708;53.114;9.388;2023-05-07T10:25:04;4.20;;;2.60;;
19151;SDS011;9708;53.114;9.388;2023-05-07T10:27:36;3.73;;;2.67;;
19151;SDS011;9708;53.114;9.388;2023-05-07T10:30:06;3.23;;;2.43;;
19151;SDS011;9708;53.114;9.388;2023-05-07T10:32:42;3.47;;;2.37;;
19151;SDS011;9708;53.114;9.388;2023-05-07T10:35:14;2.50;;;2.23;;
19151;SDS011;9708;53.114;9.388;2023-05-07T10:37:44;3.07;;;2.67;;
19151;SDS011;9708;53.114;9.388;2023-05-07T10:40:11;3.70;;;2.50;;
19151;SDS011;9708;53.114;9.388;2023-05-07T10:42:39;3.73;;;2.60;;
19151;SDS011;9708;53.114;9.388;2023-05-07T10:45:20;4.33;;;2.67;;
19151;SDS011;9708;53.114;9.388;2023-05-07T10:48:08;4.10;;;2.83;;
19151;SDS011;9708;53.114;9.388;2023-05-07T10:50:35;3.87;;;3.13;;
19151;SDS011;9708;53.114;9.388;2023-05-07T10:53:22;2.83;;;2.40;;
19151;SDS011;9708;53.114;9.388;2023-05-07T11:01:57;3.20;;;2.27;;
19151;SDS011;9708;53.114;9.388;2023-05-07T11:04:28;3.40;;;2.10;;
19151;SDS011;9708;53.114;9.388;2023-05-07T11:10:01;3.33;;;2.23;;
19151;SDS011;9708;53.114;9.388;2023-05-07T11:12:48;3.20;;;2.23;;
19151;SDS011;9708;53.114;9.388;2023-05-07T11:15:35;3.47;;;2.13;;
19151;SDS011;9708;53.114;9.388;2023-05-07T11:18:06;2.77;;;1.93;;
19151;SDS011;9708;53.114;9.388;2023-05-07T11:20:51;3.00;;;2.27;;
19151;SDS011;9708;53.114;9.388;2023-05-07T11:26:19;2.43;;;2.23;;
19151;SDS011;9708;53.114;9.388;2023-05-07T11:28:46;4.37;;;2.40;;
19151;SDS011;9708;53.114;9.388;2023-05-07T11:31:14;3.00;;;2.13;;
19151;SDS011;9708;53.114;9.388;2023-05-07T11:33:47;2.53;;;2.30;;
19151;SDS011;9708;53.114;9.388;2023-05-07T11:36:16;2.13;;;1.90;;
19151;SDS011;9708;53.114;9.388;2023-05-07T11:38:44;2.50;;;2.10;;
19151;SDS011;9708;53.114;9.388;2023-05-07T11:41:10;2.42;;;2.22;;
19151;SDS011;9708;53.114;9.388;2023-05-07T11:43:37;2.33;;;2.13;;
19151;SDS011;9708;53.114;9.388;2023-05-07T11:46:19;2.20;;;2.00;;
19151;SDS011;9708;53.114;9.388;2023-05-07T11:48:46;3.28;;;2.38;;
19151;SDS011;9708;53.114;9.388;2023-05-07T11:51:13;3.97;;;2.67;;
19151;SDS011;9708;53.114;9.388;2023-05-07T11:53:46;2.38;;;2.17;;
19151;SDS011;9708;53.114;9.388;2023-05-07T11:56:14;2.33;;;1.83;;
19151;SDS011;9708;53.114;9.388;2023-05-07T11:58:42;3.58;;;2.25;;
19151;SDS011;9708;53.114;9.388;2023-05-07T12:01:11;2.53;;;2.13;;
19151;SDS011;9708;53.114;9.388;2023-05-07T12:03:39;2.97;;;2.22;;
19151;SDS011;9708;53.114;9.388;2023-05-07T12:06:08;2.22;;;1.75;;
19151;SDS011;9708;53.114;9.388;2023-05-07T12:08:38;2.35;;;2.15;;
19151;SDS011;9708;53.114;9.388;2023-05-07T12:11:09;2.63;;;2.33;;
19151;SDS011;9708;53.114;9.388;2023-05-07T12:13:41;3.38;;;2.33;;
19151;SDS011;9708;53.114;9.388;2023-05-07T12:16:08;2.20;;;2.00;;
19151;SDS011;9708;53.114;9.388;2023-05-07T12:18:35;2.03;;;1.88;;
19151;SDS011;9708;53.114;9.388;2023-05-07T12:21:03;2.20;;;2.00;;
19151;SDS011;9708;53.114;9.388;2023-05-07T12:23:31;3.28;;;2.08;;
19151;SDS011;9708;53.114;9.388;2023-05-07T12:25:59;3.90;;;2.40;;
19151;SDS011;9708;53.114;9.388;2023-05-07T12:28:27;7.53;;;2.40;;
19151;SDS011;9708;53.114;9.388;2023-05-07T12:30:54;2.17;;;1.90;;
19151;SDS011;9708;53.114;9.388;2023-05-07T12:33:23;3.38;;;2.22;;
19151;SDS011;9708;53.114;9.388;2023-05-07T12:35:52;3.05;;;2.03;;
19151;SDS011;9708;53.114;9.388;2023-05-07T12:38:20;3.15;;;2.17;;
19151;SDS011;9708;53.114;9.388;2023-05-07T12:40:47;3.63;;;2.10;;
19151;SDS011;9708;53.114;9.388;2023-05-07T12:43:17;3.05;;;2.58;;
19151;SDS011;9708;53.114;9.388;2023-05-07T12:45:45;2.78;;;2.50;;
19151;SDS011;9708;53.114;9.388;2023-05-07T12:48:14;2.20;;;2.00;;
19151;SDS011;9708;53.114;9.388;2023-05-07T12:50:41;6.13;;;2.40;;
19151;SDS011;9708;53.114;9.388;2023-05-07T12:53:08;2.10;;;1.88;;
19151;SDS011;9708;53.114;9.388;2023-05-07T12:55:40;3.67;;;2.30;;
19151;SDS011;9708;53.114;9.388;2023-05-07T12:58:08;2.90;;;2.25;;
19151;SDS011;9708;53.114;9.388;2023-05-07T13:00:43;3.75;;;2.60;;
19151;SDS011;9708;53.114;9.388;2023-05-07T13:03:10;4.00;;;2.72;;
19151;SDS011;9708;53.114;9.388;2023-05-07T13:05:38;2.20;;;2.00;;
19151;SDS011;9708;53.114;9.388;2023-05-07T13:08:05;2.30;;;1.90;;
19151;SDS011;9708;53.114;9.388;2023-05-07T13:10:34;2.53;;;2.25;;
19151;SDS011;9708;53.114;9.388;2023-05-07T13:13:01;2.45;;;2.22;;
19151;SDS011;9708;53.114;9.388;2023-05-07T13:15:28;3.60;;;2.42;;
19151;SDS011;9708;53.114;9.388;2023-05-07T13:17:57;3.17;;;2.50;;
19151;SDS011;9708;53.114;9.388;2023-05-07T13:20:23;2.58;;;2.38;;
19151;SDS011;9708;53.114;9.388;2023-05-07T13:22:50;3.60;;;2.25;;
19151;SDS011;9708;53.114;9.388;2023-05-07T13:25:17;2.50;;;2.30;;
19151;SDS011;9708;53.114;9.388;2023-05-07T13:27:44;3.15;;;2.47;;
19151;SDS011;9708;53.114;9.388;2023-05-07T13:30:11;3.17;;;2.35;;
19151;SDS011;9708;53.114;9.388;2023-05-07T13:32:38;2.63;;;2.42;;
19151;SDS011;9708;53.114;9.388;2023-05-07T13:35:07;2.45;;;2.25;;
19151;SDS011;9708;53.114;9.388;2023-05-07T13:37:34;2.13;;;1.90;;
19151;SDS011;9708;53.114;9.388;2023-05-07T13:40:01;3.53;;;2.25;;
19151;SDS011;9708;53.114;9.388;2023-05-07T13:42:28;2.95;;;2.63;;
19151;SDS011;9708;53.114;9.388;2023-05-07T13:44:55;2.60;;;2.38;;
19151;SDS011;9708;53.114;9.388;2023-05-07T13:47:22;2.92;;;2.53;;
19151;SDS011;9708;53.114;9.388;2023-05-07T13:49:49;5.10;;;2.97;;
19151;SDS011;9708;53.114;9.388;2023-05-07T13:52:17;3.30;;;2.35;;
19151;SDS011;9708;53.114;9.388;2023-05-07T13:54:45;2.25;;;2.08;;
19151;SDS011;9708;53.114;9.388;2023-05-07T13:57:11;3.25;;;2.00;;
19151;SDS011;9708;53.114;9.388;2023-05-07T13:59:38;2.50;;;2.17;;
19151;SDS011;9708;53.114;9.388;2023-05-07T14:02:05;5.57;;;3.03;;
19151;SDS011;9708;53.114;9.388;2023-05-07T14:04:32;2.60;;;2.33;;
19151;SDS011;9708;53.114;9.388;2023-05-07T14:06:59;3.15;;;2.50;;
19151;SDS011;9708;53.114;9.388;2023-05-07T14:09:27;2.55;;;2.20;;
19151;SDS011;9708;53.114;9.388;2023-05-07T14:11:54;4.15;;;2.55;;
19151;SDS011;9708;53.114;9.388;2023-05-07T14:14:21;2.33;;;2.13;;
19151;SDS011;9708;53.114;9.388;2023-05-07T14:16:48;2.60;;;2.38;;
19151;SDS011;9708;53.114;9.388;2023-05-07T14:19:14;3.65;;;2.42;;
19151;SDS011;9708;53.114;9.388;2023-05-07T14:21:41;3.38;;;2.78;;
19151;SDS011;9708;53.114;9.388;2023-05-07T14:24:08;3.30;;;2.78;;
19151;SDS011;9708;53.114;9.388;2023-05-07T14:26:36;2.75;;;2.22;;
19151;SDS011;9708;53.114;9.388;2023-05-07T14:29:03;2.88;;;2.40;;
19151;SDS011;9708;53.114;9.388;2023-05-07T14:31:30;3.90;;;2.45;;
19151;SDS011;9708;53.114;9.388;2023-05-07T14:33:57;3.83;;;2.50;;
19151;SDS011;9708;53.114;9.388;2023-05-07T14:36:24;6.70;;;2.30;;
19151;SDS011;9708;53.114;9.388;2023-05-07T14:38:52;2.00;;;1.90;;
19151;SDS011;9708;53.114;9.388;2023-05-07T14:41:19;3.75;;;2.58;;
19151;SDS011;9708;53.114;9.388;2023-05-07T14:43:47;3.47;;;2.90;;
19151;SDS011;9708;53.114;9.388;2023-05-07T14:46:15;3.25;;;2.78;;
19151;SDS011;9708;53.114;9.388;2023-05-07T14:48:43;2.22;;;1.88;;
19151;SDS011;9708;53.114;9.388;2023-05-07T14:51:10;1.98;;;1.88;;
19151;SDS011;9708;53.114;9.388;2023-05-07T14:53:37;3.58;;;2.15;;
19151;SDS011;9708;53.114;9.388;2023-05-07T14:56:04;2.28;;;2.03;;
19151;SDS011;9708;53.114;9.388;2023-05-07T14:58:32;2.80;;;2.60;;
19151;SDS011;9708;53.114;9.388;2023-05-07T15:01:01;4.05;;;2.60;;
19151;SDS011;9708;53.114;9.388;2023-05-07T15:03:28;2.67;;;1.80;;
19151;SDS011;9708;53.114;9.388;2023-05-07T15:05:55;2.20;;;1.77;;
19151;SDS011;9708;53.114;9.388;2023-05-07T15:08:21;4.70;;;2.55;;
19151;SDS011;9708;53.114;9.388;2023-05-07T15:10:48;2.38;;;2.00;;
19151;SDS011;9708;53.114;9.388;2023-05-07T15:13:15;2.97;;;2.53;;
19151;SDS011;9708;53.114;9.388;2023-05-07T15:15:42;2.30;;;2.10;;